• Join FlightAware (Why Join?)
  • Login
  • US Flag 
09:56PM EDT


 

Airport Tracker/Info


-or-


 

Live Flight TrackerFlight Track Log ✈ SKW5195 ✈ 11-May-2013 ✈ KIAH - KSAT

Flight Track Log - Related Links

Times and Time Zones

All times are in EDT time to prevent confusion due to time zone crossing. See the SKW5195 flight status page for this flight to view local times or setup timezone preferences in your user account.

Time Position Orientation Groundspeed Altitude Reporting Facility
EDT Latitude Longitude Course Direction KTS MPH feet Rate Location/Type
12:56PM 29.9639 -95.3433 197° South 164 189 600  Level Houston Center
12:57PM 29.9333 -95.3542 197° South 188 216 1,800 1,740 Climbing Houston Center
12:58PM 29.8906 -95.4164 232° Southwest 239 275 3,800 1,980 Climbing Houston Center
12:59PM 29.8439 -95.4867 233° Southwest 268 308 6,100 2,820 Climbing Houston Center
01:00PM 29.8053 -95.5600 239° Southwest 276 318 9,700 2,580 Climbing Houston Center
01:01PM 29.8017 -95.6528 267° West 290 334 11,500 2,100 Climbing Houston Center
01:02PM 29.7956 -95.7569 266° West 320 368 14,100 2,520 Climbing Houston Center
01:03PM 29.7908 -95.8861 268° West 338 389 16,700 2,400 Climbing Houston Center
01:04PM 29.7869 -95.9958 268° West 344 396 19,100 2,220 Climbing Houston Center
01:05PM 29.7825 -96.0942 267° West 331 381 21,300 1,800 Climbing Houston Center
01:06PM 29.7806 -96.2028 269° West 338 389 22,900 1,260 Climbing Houston Center
01:07PM 29.7914 -96.3419 275° West 363 418 24,000 480 Climbing Houston Center
01:08PM 29.8003 -96.4678 275° West 390 449 24,000  Level Houston Center
01:09PM 29.8103 -96.5964 275° West 404 465 24,000  Level Houston Center
01:10PM 29.8186 -96.7172 275° West 386 444 24,000 -240 Level Houston Center
01:11PM 29.8278 -96.8331 275° West 370 426 23,600 -780 Descending Houston Center
01:12PM 29.8353 -96.9500 274° West 369 425 22,400 -1,620 Descending Houston Center
01:13PM 29.8450 -97.0867 275° West 360 414 20,300 -1,860 Descending Houston Center
01:14PM 29.8525 -97.1983 274° West 354 407 18,700 -1,260 Descending Houston Center
01:15PM 29.8606 -97.3117 275° West 356 410 17,700 -1,080 Descending Houston Center
01:16PM 29.8678 -97.4228 274° West 351 404 16,600 -1,080 Descending Houston Center
01:17PM 29.8747 -97.5325 274° West 345 397 15,600 -1,020 Descending Houston Center
01:18PM 29.8831 -97.6542 275° West 342 394 14,500 -1,080 Descending Houston Center
01:19PM 29.8911 -97.7758 274° West 354 407 13,500 -780 Descending Houston Center
01:20PM 29.8864 -97.8872 267° West 360 414 13,000 -600 Descending Houston Center
01:21PM 29.8425 -97.9914 244° Southwest 360 414 12,300 -780 Descending Houston Center
01:22PM 29.7808 -98.0936 235° Southwest 363 418 11,400 -840 Descending Houston Center
01:23PM 29.6953 -98.1736 219° Southwest 374 430 10,600 -660 Descending Houston Center
01:24PM 29.6289 -98.2367 220° Southwest 323 372 10,100 -960 Descending Houston Center
01:25PM 29.5717 -98.2897 219° Southwest 267 307 8,800 -1,620 Descending Houston Center
01:26PM 29.5175 -98.3397 219° Southwest 269 310 7,200 -1,860 Descending Houston Center
01:27PM 29.4589 -98.4092 226° Southwest 278 320 5,100 -1,500 Descending Houston Center
01:28PM 29.4089 -98.4825 232° Southwest 263 303 4,100 -1,020 Descending Houston Center